createdAt,value
2019-01-04T00:04:07.901Z,102807.57
2019-01-04T00:06:33.931Z,102808.69
2019-01-04T00:08:59.918Z,102814.73
2019-01-04T00:11:25.922Z,102816.34
2019-01-04T00:13:51.967Z,102818.20
2019-01-04T00:16:18.005Z,102808.30
2019-01-04T00:18:44.032Z,102795.63
2019-01-04T00:21:10.017Z,102799.50
2019-01-04T00:23:36.056Z,102794.33
2019-01-04T00:26:02.046Z,102790.14
2019-01-04T00:28:28.121Z,102788.84
2019-01-04T00:30:54.124Z,102789.52
2019-01-04T00:33:20.168Z,102786.17
2019-01-04T00:35:46.161Z,102786.63
2019-01-04T00:38:12.185Z,102787.96
2019-01-04T00:40:58.085Z,102786.40
2019-01-04T00:43:24.137Z,102794.91
2019-01-04T00:45:50.183Z,102786.52
2019-01-04T00:50:48.711Z,102793.95
2019-01-04T00:53:14.704Z,102801.78
2019-01-04T00:56:22.349Z,102798.80
2019-01-04T00:59:28.096Z,102803.88
2019-01-04T01:02:33.898Z,102796.58
2019-01-04T01:08:53.634Z,102786.69
2019-01-04T01:11:59.438Z,102798.39
2019-01-04T01:15:07.122Z,102797.53
2019-01-04T01:21:26.184Z,102788.80
2019-01-04T01:24:31.976Z,102797.50
2019-01-04T01:27:37.729Z,102800.93
2019-01-04T01:30:43.519Z,102796.47
2019-01-04T01:36:50.401Z,102782.80
2019-01-04T01:39:58.077Z,102784.94
2019-01-04T01:54:39.924Z,102769.05
2019-01-04T01:57:05.932Z,102778.44
2019-01-04T01:59:31.929Z,102781.68
2019-01-04T02:01:57.975Z,102779.98
2019-01-04T02:04:23.961Z,102784.09
2019-01-04T02:06:49.951Z,102781.19
2019-01-04T02:09:15.981Z,102781.67
2019-01-04T02:11:42.005Z,102779.53
2019-01-04T02:14:08.007Z,102777.75
2019-01-04T02:16:33.992Z,102769.42
2019-01-04T02:19:00.023Z,102764.55
2019-01-04T02:21:26.018Z,102766.69
2019-01-04T02:23:52.046Z,102779.22
2019-01-04T02:26:18.087Z,102767.46
2019-01-04T02:29:04.126Z,102765.17
2019-01-04T02:31:30.117Z,102757.42
2019-01-04T02:33:56.151Z,102760.55
2019-01-04T02:36:22.212Z,102751.78
2019-01-04T02:38:48.191Z,102748.44
2019-01-04T02:41:14.204Z,102748.14
2019-01-04T02:43:40.629Z,102745.40
2019-01-04T02:46:08.300Z,102752.75
2019-01-04T02:48:34.331Z,102759.63
2019-01-04T02:51:00.323Z,102758.31
2019-01-04T02:53:26.356Z,102755.25
2019-01-04T02:55:52.362Z,102768.49
2019-01-04T02:58:18.382Z,102772.87
2019-01-04T03:00:44.384Z,102778.61
2019-01-04T03:03:10.413Z,102775.51
2019-01-04T03:05:36.404Z,102767.98
2019-01-04T03:08:02.436Z,102763.95
2019-01-04T03:10:28.466Z,102746.31
2019-01-04T03:12:54.444Z,102742.70
2019-01-04T03:15:20.496Z,102737.91
2019-01-04T03:17:46.569Z,102731.16
2019-01-04T03:20:12.593Z,102735.55
2019-01-04T03:22:38.722Z,102734.48
2019-01-04T03:25:04.721Z,102739.38
2019-01-04T03:27:30.717Z,102729.91
2019-01-04T03:29:56.775Z,102730.12
2019-01-04T03:32:22.727Z,102728.98
2019-01-04T03:34:48.762Z,102724.00
2019-01-04T03:37:14.795Z,102717.96
2019-01-04T03:39:40.785Z,102711.39
2019-01-04T03:42:06.807Z,102705.84
2019-01-04T03:44:32.799Z,102700.49
2019-01-04T03:46:58.863Z,102698.89
2019-01-04T03:49:24.853Z,102704.47
2019-01-04T03:51:50.872Z,102700.76
2019-01-04T03:54:16.911Z,102702.66
2019-01-04T03:56:42.897Z,102695.92
2019-01-04T03:59:08.913Z,102680.22
2019-01-04T04:01:34.898Z,102669.91
2019-01-04T04:04:00.925Z,102672.16
2019-01-04T04:06:26.921Z,102672.20
2019-01-04T04:08:52.960Z,102655.11
2019-01-04T04:11:18.962Z,102660.72
2019-01-04T04:13:44.991Z,102653.20
2019-01-04T04:16:10.984Z,102657.53
2019-01-04T04:18:37.056Z,102657.63
2019-01-04T04:21:03.040Z,102656.31
2019-01-04T04:23:29.080Z,102660.53
2019-01-04T04:25:57.164Z,102659.69
2019-01-04T04:28:23.133Z,102655.45
2019-01-04T04:30:49.199Z,102661.23
2019-01-04T04:33:15.180Z,102663.31
2019-01-04T04:35:41.221Z,102658.53
2019-01-04T04:38:07.210Z,102664.77
2019-01-04T04:40:33.258Z,102650.80
2019-01-04T04:42:59.237Z,102638.98
2019-01-04T04:45:25.287Z,102630.48
2019-01-04T04:47:51.266Z,102634.94
2019-01-04T04:50:17.309Z,102648.89
2019-01-04T04:52:43.415Z,102628.89
2019-01-04T04:55:09.363Z,102626.28
2019-01-04T04:57:35.361Z,102612.03
2019-01-04T05:00:01.379Z,102618.95
2019-01-04T05:02:27.377Z,102608.56
2019-01-04T05:07:19.411Z,102601.81
2019-01-04T05:09:45.411Z,102603.45
2019-01-04T05:12:11.414Z,102601.81
2019-01-04T05:14:37.439Z,102598.03
2019-01-04T05:17:03.462Z,102604.08
2019-01-04T05:19:29.544Z,102601.41
2019-01-04T05:21:55.551Z,102600.23
2019-01-04T05:24:21.545Z,102591.99
2019-01-04T05:26:47.573Z,102594.16
2019-01-04T05:29:13.565Z,102589.50
2019-01-04T05:31:39.593Z,102590.50
2019-01-04T05:34:05.585Z,102576.02
2019-01-04T05:36:31.635Z,102573.97
2019-01-04T05:38:57.617Z,102573.14
2019-01-04T05:41:23.647Z,102558.30
2019-01-04T05:43:49.645Z,102567.75
2019-01-04T05:46:15.678Z,102566.97
2019-01-04T05:48:41.678Z,102566.20
2019-01-04T05:51:07.696Z,102559.18
2019-01-04T05:53:33.681Z,102568.61
2019-01-04T05:55:59.696Z,102568.50
2019-01-04T05:58:25.682Z,102571.22
2019-01-04T06:00:51.682Z,102559.98
2019-01-04T06:03:17.711Z,102565.80
2019-01-04T06:05:43.727Z,102562.02
2019-01-04T06:08:09.747Z,102555.77
2019-01-04T06:10:35.728Z,102553.98
2019-01-04T06:13:01.766Z,102556.03
2019-01-04T06:15:27.765Z,102551.87
2019-01-04T06:17:53.798Z,102565.06
2019-01-04T06:20:19.833Z,102564.52
2019-01-04T06:22:45.889Z,102562.04
2019-01-04T06:25:11.888Z,102562.95
2019-01-04T06:27:37.913Z,102565.77
2019-01-04T06:33:17.479Z,102557.81
2019-01-04T06:35:43.483Z,102558.25
2019-01-04T06:38:09.517Z,102555.52
2019-01-04T06:40:35.549Z,102565.22
2019-01-04T06:43:01.581Z,102560.45
2019-01-04T06:45:27.615Z,102556.72
2019-01-04T06:47:53.635Z,102562.22
2019-01-04T06:50:19.665Z,102548.19
2019-01-04T06:52:45.653Z,102549.69
2019-01-04T06:55:51.896Z,102553.39
2019-01-04T06:58:17.933Z,102549.91
2019-01-04T07:00:43.975Z,102550.41
2019-01-04T07:03:09.971Z,102552.00
2019-01-04T07:08:21.459Z,102553.77
2019-01-04T07:10:47.452Z,102540.86
2019-01-04T07:13:13.513Z,102537.41
2019-01-04T07:15:39.490Z,102542.13
2019-01-04T07:18:05.502Z,102532.35
2019-01-04T07:20:31.496Z,102531.13
2019-01-04T07:22:57.536Z,102526.59
2019-01-04T07:25:23.534Z,102521.57
2019-01-04T07:27:49.562Z,102512.02
2019-01-04T07:30:15.624Z,102520.78
2019-01-04T07:32:41.610Z,102511.78
2019-01-04T07:35:07.674Z,102505.09
2019-01-04T07:37:33.660Z,102503.12
2019-01-04T07:39:59.716Z,102503.63
2019-01-04T07:42:25.738Z,102513.92
2019-01-04T07:44:51.763Z,102503.22
2019-01-04T07:47:17.788Z,102507.79
2019-01-04T07:49:43.827Z,102508.34
2019-01-04T07:52:09.819Z,102489.76
2019-01-04T07:54:35.826Z,102497.65
2019-01-04T07:57:01.852Z,102487.31
2019-01-04T07:59:27.845Z,102489.62
2019-01-04T08:01:53.883Z,102489.53
2019-01-04T08:04:19.877Z,102489.58
2019-01-04T08:06:45.920Z,102491.41
2019-01-04T08:09:11.955Z,102505.27
2019-01-04T08:11:37.990Z,102499.10
2019-01-04T08:14:03.975Z,102490.34
2019-01-04T08:16:30.015Z,102492.34
2019-01-04T08:18:56.011Z,102490.00
2019-01-04T08:21:22.047Z,102485.44
2019-01-04T08:23:48.061Z,102476.47
2019-01-04T08:26:14.057Z,102479.39
2019-01-04T08:28:40.098Z,102469.84
2019-01-04T08:31:06.092Z,102462.86
2019-01-04T08:33:32.122Z,102467.44
2019-01-04T08:35:58.119Z,102476.47
2019-01-04T08:38:24.150Z,102466.83
2019-01-04T08:41:10.140Z,102466.14
2019-01-04T08:43:36.195Z,102456.87
2019-01-04T08:46:02.186Z,102450.66
2019-01-04T08:49:09.844Z,102436.42
2019-01-04T08:51:35.870Z,102433.84
2019-01-04T08:54:21.856Z,102441.03
2019-01-04T08:56:47.884Z,102438.33
2019-01-04T08:59:13.921Z,102432.55
2019-01-04T09:01:39.930Z,102432.80
2019-01-04T09:04:05.954Z,102431.75
2019-01-04T09:06:31.939Z,102426.91
2019-01-04T09:08:57.969Z,102427.53
2019-01-04T09:11:23.966Z,102438.62
2019-01-04T09:13:50.006Z,102435.03
2019-01-04T09:16:15.990Z,102434.58
2019-01-04T09:18:42.012Z,102425.66
2019-01-04T09:21:08.049Z,102424.97
2019-01-04T09:26:05.832Z,102413.98
2019-01-04T09:28:31.856Z,102406.08
2019-01-04T09:30:57.901Z,102416.94
2019-01-04T09:33:23.947Z,102415.02
2019-01-04T09:35:49.947Z,102408.78
2019-01-04T09:38:15.979Z,102411.60
2019-01-04T09:40:41.963Z,102408.89
2019-01-04T09:43:07.993Z,102400.70
2019-01-04T09:45:33.999Z,102392.27
2019-01-04T09:48:00.031Z,102391.17
2019-01-04T09:50:26.033Z,102390.38
2019-01-04T09:52:52.062Z,102393.40
2019-01-04T09:55:18.062Z,102379.84
2019-01-04T09:57:44.082Z,102373.38
2019-01-04T10:00:10.212Z,102378.38
2019-01-04T10:02:36.247Z,102374.20
2019-01-04T10:05:43.901Z,102366.70
2019-01-04T10:08:09.965Z,102364.61
2019-01-04T10:10:35.957Z,102363.69
2019-01-04T10:13:01.988Z,102356.97
2019-01-04T10:15:28.004Z,102349.89
2019-01-04T10:17:53.996Z,102343.25
2019-01-04T10:20:20.033Z,102338.26
2019-01-04T10:23:06.036Z,102336.52
2019-01-04T10:25:32.102Z,102352.89
2019-01-04T10:27:58.090Z,102331.71
2019-01-04T10:31:05.787Z,102323.96
2019-01-04T10:33:31.804Z,102322.98
2019-01-04T10:35:57.820Z,102323.19
2019-01-04T10:38:23.822Z,102314.30
2019-01-04T10:40:49.853Z,102309.83
2019-01-04T10:43:15.859Z,102310.69
2019-01-04T10:45:41.884Z,102299.67
2019-01-04T10:48:07.874Z,102298.31
2019-01-04T10:50:33.895Z,102289.48
2019-01-04T10:52:59.894Z,102271.16
2019-01-04T10:55:25.904Z,102263.61
2019-01-04T10:57:51.946Z,102243.04
2019-01-04T11:00:18.049Z,102250.50
2019-01-04T11:02:44.074Z,102248.48
2019-01-04T11:05:10.076Z,102250.52
2019-01-04T11:07:36.109Z,102253.70
2019-01-04T11:10:43.723Z,102233.23
2019-01-04T11:13:09.793Z,102241.69
2019-01-04T11:18:21.426Z,102235.66
2019-01-04T11:20:47.453Z,102233.63
2019-01-04T11:23:53.239Z,102220.39
2019-01-04T11:45:15.770Z,102152.47
2019-01-04T11:48:23.472Z,102152.77
2019-01-04T11:57:03.626Z,102136.45
2019-01-04T11:59:29.616Z,102127.98
2019-01-04T12:01:55.646Z,102138.06
2019-01-04T12:04:21.677Z,102117.95
2019-01-04T12:06:47.690Z,102131.41
2019-01-04T12:09:13.728Z,102115.50
2019-01-04T12:11:39.768Z,102104.98
2019-01-04T12:14:05.753Z,102111.43
2019-01-04T12:16:31.764Z,102091.20
2019-01-04T12:18:57.769Z,102085.99
2019-01-04T12:21:23.805Z,102068.53
2019-01-04T12:23:49.798Z,102068.44
2019-01-04T12:26:15.798Z,102074.27
2019-01-04T12:28:41.834Z,102064.28
2019-01-04T12:31:07.898Z,102062.09
2019-01-04T12:33:33.901Z,102066.83
2019-01-04T12:35:59.904Z,102080.03
2019-01-04T12:38:25.928Z,102042.70
2019-01-04T12:40:51.929Z,102057.98
2019-01-04T12:43:17.966Z,102066.02
2019-01-04T12:45:43.955Z,102074.62
2019-01-04T12:48:09.999Z,102079.85
2019-01-04T12:50:36.012Z,102075.84
2019-01-04T12:53:02.024Z,102079.83
2019-01-04T12:55:28.061Z,102074.33
2019-01-04T12:57:54.091Z,102077.06
2019-01-04T13:00:20.121Z,102074.09
2019-01-04T13:02:46.138Z,102063.84
2019-01-04T13:05:12.171Z,102056.56
2019-01-04T13:07:38.160Z,102058.61
2019-01-04T13:10:45.816Z,102053.41
2019-01-04T13:13:11.840Z,102030.52
2019-01-04T13:15:37.867Z,102031.88
2019-01-04T13:18:03.859Z,102031.96
2019-01-04T13:20:29.892Z,102042.78
2019-01-04T13:22:55.908Z,102049.36
2019-01-04T13:25:21.942Z,102045.74
2019-01-04T13:27:47.984Z,102044.97
2019-01-04T13:30:13.966Z,102048.61
2019-01-04T13:32:40.049Z,102051.08
2019-01-04T13:35:06.051Z,102049.30
2019-01-04T13:37:32.073Z,102055.00
2019-01-04T13:39:58.071Z,102058.32
2019-01-04T13:42:24.071Z,102062.27
2019-01-04T13:44:50.112Z,102048.77
2019-01-04T13:47:16.129Z,102053.80
2019-01-04T13:49:42.162Z,102073.69
2019-01-04T13:52:08.201Z,102046.70
2019-01-04T13:54:34.212Z,102034.46
2019-01-04T13:57:00.213Z,102029.27
2019-01-04T13:59:26.238Z,102038.39
2019-01-04T14:01:52.238Z,102035.53
2019-01-04T14:04:18.285Z,102030.55
2019-01-04T14:06:44.299Z,102024.38
2019-01-04T14:09:17.815Z,102036.66
2019-01-04T14:11:43.791Z,102008.45
2019-01-04T14:14:09.837Z,102005.19
2019-01-04T14:16:35.847Z,102005.97
2019-01-04T14:19:01.853Z,102010.95
2019-01-04T14:21:27.901Z,102013.00
2019-01-04T14:23:53.951Z,102013.19
2019-01-04T14:26:19.968Z,102011.64
2019-01-04T14:28:45.959Z,102004.45
2019-01-04T14:31:12.016Z,102001.84
2019-01-04T14:33:38.085Z,102007.95
2019-01-04T14:36:04.095Z,102000.14
2019-01-04T14:38:30.132Z,101982.03
2019-01-04T14:40:56.156Z,101988.19
2019-01-04T14:43:22.214Z,101993.39
2019-01-04T14:45:48.205Z,102014.53
2019-01-04T14:48:14.238Z,102003.17
2019-01-04T14:50:40.225Z,101990.23
2019-01-04T14:53:06.974Z,101996.36
2019-01-04T14:55:34.216Z,102004.58
2019-01-04T14:58:00.251Z,101982.28
2019-01-04T15:00:26.244Z,101989.87
2019-01-04T15:02:52.286Z,101987.11
2019-01-04T15:05:18.320Z,101991.04
2019-01-04T15:07:44.334Z,101979.37
2019-01-04T15:10:10.385Z,101991.09
2019-01-04T15:12:36.409Z,101988.84
2019-01-04T15:15:44.087Z,101984.22
2019-01-04T15:18:10.156Z,101996.67
2019-01-04T15:20:36.162Z,102013.48
2019-01-04T15:23:02.219Z,102014.23
2019-01-04T15:25:28.293Z,102015.56
2019-01-04T15:27:54.304Z,102011.57
2019-01-04T15:30:20.338Z,102010.06
2019-01-04T15:32:46.331Z,102000.42
2019-01-04T15:35:12.370Z,102011.09
2019-01-04T15:37:38.379Z,101999.46
2019-01-04T15:40:46.025Z,101981.65
2019-01-04T15:43:12.061Z,101982.87
2019-01-04T15:45:38.095Z,101980.34
2019-01-04T15:48:04.085Z,101979.95
2019-01-04T15:50:30.133Z,101983.91
2019-01-04T15:52:56.139Z,101982.13
2019-01-04T15:58:01.619Z,101979.51
2019-01-04T16:00:27.643Z,101981.39
2019-01-04T16:02:53.652Z,101975.23
2019-01-04T16:05:19.687Z,101954.45
2019-01-04T16:07:45.707Z,101960.53
2019-01-04T16:10:11.691Z,101956.24
2019-01-04T16:12:37.746Z,101955.87
2019-01-04T16:15:45.365Z,101958.34
2019-01-04T16:18:11.433Z,101947.52
2019-01-04T16:20:37.445Z,101939.68
2019-01-04T16:23:03.482Z,101940.08
2019-01-04T16:25:29.543Z,101953.67
2019-01-04T16:27:55.580Z,101949.54
2019-01-04T16:30:21.628Z,101949.36
2019-01-04T16:32:47.670Z,101943.11
2019-01-04T16:35:13.705Z,101946.27
2019-01-04T16:37:39.706Z,101940.99
2019-01-04T16:40:47.363Z,101937.48
2019-01-04T16:43:13.388Z,101936.64
2019-01-04T16:48:17.321Z,101935.37
2019-01-04T16:50:43.310Z,101944.11
2019-01-04T16:53:09.377Z,101935.33
2019-01-04T16:55:35.388Z,101935.31
2019-01-04T16:58:01.414Z,101928.04
2019-01-04T17:00:27.417Z,101939.79
2019-01-04T17:02:53.477Z,101928.52
2019-01-04T17:05:19.519Z,101925.48
2019-01-04T17:07:45.533Z,101934.21
2019-01-04T17:10:11.572Z,101934.61
2019-01-04T17:12:37.602Z,101922.41
2019-01-04T17:15:45.261Z,101926.77
2019-01-04T17:18:11.297Z,101925.84
2019-01-04T17:20:37.351Z,101911.94
2019-01-04T17:23:03.345Z,101921.55
2019-01-04T17:25:29.359Z,101921.56
2019-01-04T17:27:55.393Z,101911.05
2019-01-04T17:30:21.441Z,101913.73
2019-01-04T17:32:47.478Z,101919.75
2019-01-04T17:35:13.486Z,101923.58
2019-01-04T17:37:39.522Z,101926.30
2019-01-04T17:43:19.649Z,101913.68
2019-01-04T17:45:45.648Z,101922.02
2019-01-04T17:48:11.684Z,101917.27
2019-01-04T17:50:37.693Z,101911.02
2019-01-04T17:53:03.838Z,101926.80
2019-01-04T17:55:29.840Z,101922.38
2019-01-04T17:57:55.858Z,101911.97
2019-01-04T18:03:09.322Z,101907.26
2019-01-04T18:05:35.316Z,101906.00
2019-01-04T18:08:01.351Z,101907.30
2019-01-04T18:10:27.390Z,101917.74
2019-01-04T18:12:53.380Z,101899.94
2019-01-04T18:15:19.415Z,101898.19
2019-01-04T18:17:45.422Z,101904.26
2019-01-04T18:20:11.460Z,101895.97
2019-01-04T18:22:37.457Z,101890.39
2019-01-04T18:25:03.505Z,101883.80
2019-01-04T18:27:29.501Z,101896.85
2019-01-04T18:29:55.569Z,101887.72
2019-01-04T18:32:21.735Z,101896.94
2019-01-04T18:34:47.799Z,101893.00
2019-01-04T18:37:13.783Z,101897.37
2019-01-04T18:39:39.796Z,101895.65
2019-01-04T18:42:05.829Z,101910.45
2019-01-04T18:44:31.821Z,101907.81
2019-01-04T18:46:57.863Z,101896.94
2019-01-04T18:49:23.913Z,101898.25
2019-01-04T18:51:49.943Z,101898.70
2019-01-04T18:54:15.945Z,101893.91
2019-01-04T18:56:41.947Z,101901.73
2019-01-04T18:59:07.983Z,101904.36
2019-01-04T19:01:34.061Z,101903.94
2019-01-04T19:04:00.104Z,101899.60
2019-01-04T19:06:31.098Z,101907.00
2019-01-04T19:08:54.180Z,101901.75
2019-01-04T19:13:53.798Z,101894.78
2019-01-04T19:16:19.860Z,101889.15
2019-01-04T19:18:45.858Z,101896.94
2019-01-04T19:21:11.900Z,101897.38
2019-01-04T19:23:39.644Z,101895.67
2019-01-04T19:26:05.910Z,101898.30
2019-01-04T19:28:31.980Z,101890.44
2019-01-04T19:30:58.080Z,101903.95
2019-01-04T19:33:24.160Z,101907.91
2019-01-04T19:35:50.193Z,101898.30
2019-01-04T19:38:16.245Z,101907.45
2019-01-04T19:40:42.280Z,101901.34
2019-01-04T19:43:08.334Z,101901.79
2019-01-04T19:45:34.385Z,101897.44
2019-01-04T19:48:00.393Z,101902.22
2019-01-04T19:50:46.401Z,101896.55
2019-01-04T19:53:12.434Z,101886.96
2019-01-04T19:55:38.471Z,101888.70
2019-01-04T19:58:04.485Z,101885.23
2019-01-04T20:00:30.533Z,101885.23
2019-01-04T20:02:56.544Z,101890.45
2019-01-04T20:06:22.167Z,101886.54
2019-01-04T20:09:47.770Z,101879.11
2019-01-04T20:13:13.409Z,101875.62
2019-01-04T20:21:37.586Z,101849.45
2019-01-04T20:24:23.474Z,101862.55
2019-01-04T20:27:09.441Z,101845.09
2019-01-04T20:29:55.350Z,101837.20
2019-01-04T20:32:41.324Z,101835.52
2019-01-04T20:35:27.230Z,101839.00
2019-01-04T20:38:14.042Z,101834.63
2019-01-04T20:40:59.977Z,101846.84
2019-01-04T20:46:23.487Z,101830.66
2019-01-04T20:49:09.420Z,101837.66
2019-01-04T20:54:42.767Z,101828.11
2019-01-04T20:57:28.667Z,101823.27
2019-01-04T21:00:14.598Z,101821.98
2019-01-04T21:05:47.972Z,101807.55
2019-01-04T21:08:33.933Z,101804.91
2019-01-04T21:11:19.877Z,101806.22
2019-01-04T21:14:05.832Z,101797.09
2019-01-04T21:16:51.778Z,101798.81
2019-01-04T21:19:37.670Z,101796.67
2019-01-04T21:22:24.286Z,101794.53
2019-01-04T21:30:31.348Z,101794.95
2019-01-04T21:33:17.329Z,101791.44
2019-01-04T21:36:03.269Z,101784.08
2019-01-04T21:38:49.163Z,101780.55
2019-01-04T21:41:35.120Z,101799.25
2019-01-04T21:44:21.007Z,101777.95
2019-01-04T21:47:06.943Z,101768.78
2019-01-04T21:49:52.842Z,101779.70
2019-01-04T21:52:38.789Z,101770.48
2019-01-04T21:55:24.739Z,101781.44
2019-01-04T21:58:10.674Z,101772.22
2019-01-04T22:03:44.022Z,101766.64
2019-01-04T22:14:28.845Z,101768.82
2019-01-04T22:17:14.757Z,101767.52
2019-01-04T22:20:00.692Z,101762.26
2019-01-04T22:25:20.473Z,101756.94
2019-01-04T22:28:06.380Z,101748.23
2019-01-04T22:30:52.398Z,101746.93
2019-01-04T22:33:38.311Z,101738.66
2019-01-04T22:36:24.246Z,101741.33
2019-01-04T22:39:10.138Z,101742.69
2019-01-04T22:41:56.066Z,101728.22
2019-01-04T22:44:41.983Z,101717.81
2019-01-04T22:47:27.901Z,101711.20
2019-01-04T22:50:13.807Z,101702.05
2019-01-04T22:52:59.731Z,101699.01
2019-01-04T22:55:45.669Z,101693.73
2019-01-04T22:58:31.571Z,101687.70
2019-01-04T23:04:04.925Z,101689.03
2019-01-04T23:06:50.819Z,101684.63
2019-01-04T23:12:10.694Z,101680.23
2019-01-04T23:14:56.649Z,101690.73
2019-01-04T23:17:42.563Z,101712.91
2019-01-04T23:20:28.500Z,101703.36
2019-01-04T23:23:14.397Z,101681.12
2019-01-04T23:26:00.329Z,101681.08
2019-01-04T23:28:46.284Z,101676.64
2019-01-04T23:31:32.244Z,101676.23
2019-01-04T23:34:18.220Z,101675.00
2019-01-04T23:37:04.158Z,101657.43
2019-01-04T23:39:50.042Z,101650.56
2019-01-04T23:50:25.222Z,101631.36
2019-01-04T23:53:11.141Z,101633.09
2019-01-04T23:55:57.048Z,101626.91
